createdAt,value
2018-11-23T00:00:14.709Z,0.00
2018-11-23T00:01:14.724Z,0.00
2018-11-23T00:02:14.690Z,0.00
2018-11-23T00:03:14.676Z,0.00
2018-11-23T00:04:14.667Z,0.00
2018-11-23T00:05:14.654Z,0.00
2018-11-23T00:06:14.662Z,0.00
2018-11-23T00:07:14.643Z,0.00
2018-11-23T00:08:14.635Z,0.00
2018-11-23T00:09:14.617Z,0.00
2018-11-23T00:10:14.609Z,0.00
2018-11-23T00:11:14.637Z,0.00
2018-11-23T00:12:14.584Z,0.00
2018-11-23T00:13:14.592Z,0.00
2018-11-23T00:14:14.561Z,0.00
2018-11-23T00:15:14.566Z,0.00
2018-11-23T00:16:14.538Z,0.00
2018-11-23T00:17:14.554Z,0.00
2018-11-23T00:18:14.516Z,0.00
2018-11-23T00:19:14.505Z,0.00
2018-11-23T00:20:14.515Z,0.00
2018-11-23T00:21:14.489Z,0.00
2018-11-23T00:22:14.495Z,0.00
2018-11-23T00:23:14.471Z,0.00
2018-11-23T00:24:14.451Z,0.00
2018-11-23T00:25:14.440Z,0.00
2018-11-23T00:26:14.436Z,0.00
2018-11-23T00:27:14.439Z,0.00
2018-11-23T00:28:14.412Z,0.00
2018-11-23T00:29:14.413Z,0.00
2018-11-23T00:30:14.388Z,0.00
2018-11-23T00:31:14.376Z,0.00
2018-11-23T00:32:14.394Z,0.00
2018-11-23T00:33:14.359Z,0.00
2018-11-23T00:34:14.345Z,0.00
2018-11-23T00:35:14.344Z,0.00
2018-11-23T00:36:14.336Z,0.00
2018-11-23T00:37:14.338Z,0.00
2018-11-23T00:38:14.333Z,0.00
2018-11-23T00:39:14.297Z,0.00
2018-11-23T00:40:14.280Z,0.00
2018-11-23T00:41:14.273Z,0.00
2018-11-23T00:42:14.282Z,0.00
2018-11-23T00:43:14.264Z,0.00
2018-11-23T00:44:14.237Z,0.00
2018-11-23T00:45:14.234Z,0.00
2018-11-23T00:46:14.217Z,0.00
2018-11-23T00:47:14.228Z,0.00
2018-11-23T00:48:14.194Z,0.00
2018-11-23T00:49:14.185Z,0.00
2018-11-23T00:50:14.174Z,0.00
2018-11-23T00:51:14.180Z,0.00
2018-11-23T00:52:14.176Z,0.00
2018-11-23T00:53:14.145Z,0.00
2018-11-23T00:54:14.128Z,0.00
2018-11-23T00:55:14.119Z,0.00
2018-11-23T00:56:14.115Z,0.00
2018-11-23T00:57:14.121Z,0.00
2018-11-23T00:58:14.094Z,0.00
2018-11-23T00:59:14.079Z,0.00
2018-11-23T01:00:14.082Z,0.00
2018-11-23T01:01:14.056Z,0.00
2018-11-23T01:02:14.066Z,0.00
2018-11-23T01:03:14.041Z,0.00
2018-11-23T01:04:14.025Z,0.00
2018-11-23T01:05:14.018Z,0.00
2018-11-23T01:06:14.025Z,0.00
2018-11-23T01:07:14.014Z,0.00
2018-11-23T01:08:13.985Z,0.00
2018-11-23T01:09:13.974Z,0.00
2018-11-23T01:10:13.971Z,0.00
2018-11-23T01:11:13.965Z,0.00
2018-11-23T01:12:13.960Z,0.00
2018-11-23T01:13:13.929Z,0.00
2018-11-23T01:14:13.920Z,0.00
2018-11-23T01:15:13.916Z,0.00
2018-11-23T01:16:13.899Z,0.00
2018-11-23T01:17:13.911Z,0.00
2018-11-23T01:18:13.887Z,0.00
2018-11-23T01:19:13.865Z,0.00
2018-11-23T01:20:13.857Z,0.00
2018-11-23T01:21:13.847Z,0.00
2018-11-23T01:22:13.854Z,0.00
2018-11-23T01:23:13.827Z,0.00
2018-11-23T01:24:13.822Z,0.00
2018-11-23T01:25:13.804Z,0.00
2018-11-23T01:26:13.796Z,0.00
2018-11-23T01:27:13.795Z,0.00
2018-11-23T01:28:13.779Z,0.00
2018-11-23T01:29:13.765Z,0.00
2018-11-23T01:30:13.752Z,0.00
2018-11-23T01:31:13.741Z,0.00
2018-11-23T01:32:13.748Z,0.00
2018-11-23T01:33:13.728Z,0.00
2018-11-23T01:34:13.706Z,0.00
2018-11-23T01:35:13.714Z,0.00
2018-11-23T01:36:13.685Z,0.00
2018-11-23T01:37:13.676Z,0.00
2018-11-23T01:38:13.685Z,0.00
2018-11-23T01:39:13.655Z,0.00
2018-11-23T01:40:13.642Z,0.00
2018-11-23T01:41:13.647Z,0.00
2018-11-23T01:42:13.628Z,0.00
2018-11-23T01:43:13.632Z,0.00
2018-11-23T01:44:13.607Z,0.00
2018-11-23T01:45:13.600Z,0.00
2018-11-23T01:46:13.584Z,0.00
2018-11-23T01:47:13.579Z,0.00
2018-11-23T01:48:13.573Z,0.00
2018-11-23T01:49:13.562Z,0.00
2018-11-23T01:50:13.537Z,0.00
2018-11-23T01:51:13.526Z,0.00
2018-11-23T01:52:13.515Z,0.00
2018-11-23T01:53:13.523Z,0.00
2018-11-23T01:54:13.496Z,0.00
2018-11-23T01:55:13.482Z,0.00
2018-11-23T01:56:13.488Z,0.00
2018-11-23T01:57:13.465Z,0.00
2018-11-23T01:58:13.466Z,0.00
2018-11-23T01:59:13.441Z,0.00
2018-11-23T02:00:13.432Z,0.00
2018-11-23T02:01:13.418Z,0.00
2018-11-23T02:02:13.419Z,0.00
2018-11-23T02:03:13.419Z,0.00
2018-11-23T02:04:13.385Z,0.00
2018-11-23T02:05:13.385Z,0.00
2018-11-23T02:06:13.367Z,0.00
2018-11-23T02:07:13.354Z,0.00
2018-11-23T02:08:13.359Z,0.00
2018-11-23T02:09:13.335Z,0.00
2018-11-23T02:10:13.325Z,0.00
2018-11-23T02:11:13.323Z,0.00
2018-11-23T02:12:13.304Z,0.00
2018-11-23T02:13:13.314Z,0.00
2018-11-23T02:14:13.281Z,0.00
2018-11-23T02:15:13.268Z,0.00
2018-11-23T02:16:13.260Z,0.00
2018-11-23T02:17:13.257Z,0.00
2018-11-23T02:18:13.259Z,0.00
2018-11-23T02:19:13.229Z,0.00
2018-11-23T02:20:13.215Z,0.00
2018-11-23T02:21:13.206Z,0.00
2018-11-23T02:22:13.195Z,0.00
2018-11-23T02:23:13.201Z,0.00
2018-11-23T02:24:13.180Z,0.00
2018-11-23T02:25:13.168Z,0.00
2018-11-23T02:26:13.162Z,0.00
2018-11-23T02:27:13.145Z,0.00
2018-11-23T02:28:13.153Z,0.00
2018-11-23T02:29:13.119Z,0.00
2018-11-23T02:30:13.116Z,0.00
2018-11-23T02:31:13.097Z,0.00
2018-11-23T02:32:13.091Z,0.00
2018-11-23T02:33:13.094Z,0.00
2018-11-23T02:34:13.067Z,0.00
2018-11-23T02:35:13.055Z,0.00
2018-11-23T02:36:13.055Z,0.00
2018-11-23T02:37:13.035Z,0.00
2018-11-23T02:38:13.042Z,0.00
2018-11-23T02:39:13.019Z,0.00
2018-11-23T02:40:13.005Z,0.00
2018-11-23T02:41:12.994Z,0.00
2018-11-23T02:42:12.990Z,0.00
2018-11-23T02:43:12.997Z,0.00
2018-11-23T02:44:12.962Z,0.00
2018-11-23T02:45:12.952Z,0.00
2018-11-23T02:46:12.959Z,0.00
2018-11-23T02:47:12.927Z,0.00
2018-11-23T02:48:12.933Z,0.00
2018-11-23T02:49:12.906Z,0.00
2018-11-23T02:50:12.900Z,0.00
2018-11-23T02:51:12.886Z,0.00
2018-11-23T02:52:12.873Z,0.00
2018-11-23T02:53:12.900Z,0.00
2018-11-23T02:54:12.858Z,0.00
2018-11-23T02:55:12.842Z,0.00
2018-11-23T02:56:12.831Z,0.00
2018-11-23T02:57:12.833Z,0.00
2018-11-23T02:58:12.835Z,0.00
2018-11-23T02:59:12.802Z,0.00
2018-11-23T03:00:12.788Z,0.00
2018-11-23T03:01:12.781Z,0.00
2018-11-23T03:02:12.766Z,0.00
2018-11-23T03:03:12.772Z,0.00
2018-11-23T03:04:12.763Z,0.00
2018-11-23T03:05:12.750Z,0.00
2018-11-23T03:06:12.741Z,0.00
2018-11-23T03:07:12.711Z,0.00
2018-11-23T03:08:12.750Z,0.00
2018-11-23T03:09:12.691Z,0.00
2018-11-23T03:10:12.701Z,0.00
2018-11-23T03:11:12.672Z,0.00
2018-11-23T03:12:12.660Z,0.00
2018-11-23T03:13:12.649Z,0.00
2018-11-23T03:14:12.665Z,0.00
2018-11-23T03:15:12.633Z,0.00
2018-11-23T03:16:12.615Z,0.00
2018-11-23T03:17:12.615Z,0.00
2018-11-23T03:18:12.596Z,0.00
2018-11-23T03:19:12.611Z,0.00
2018-11-23T03:20:12.576Z,0.00
2018-11-23T03:21:12.571Z,0.00
2018-11-23T03:22:12.552Z,0.00
2018-11-23T03:23:12.545Z,0.00
2018-11-23T03:24:12.564Z,0.00
2018-11-23T03:25:12.521Z,0.00
2018-11-23T03:26:12.511Z,0.00
2018-11-23T03:27:12.498Z,0.00
2018-11-23T03:28:12.494Z,0.00
2018-11-23T03:29:12.533Z,0.00
2018-11-23T03:30:12.467Z,0.00
2018-11-23T03:31:12.713Z,0.00
2018-11-23T03:32:12.445Z,0.00
2018-11-23T03:33:12.439Z,0.00
2018-11-23T03:34:12.445Z,0.00
2018-11-23T03:35:12.428Z,0.00
2018-11-23T03:36:12.404Z,0.00
2018-11-23T03:37:12.393Z,0.00
2018-11-23T03:38:12.397Z,0.00
2018-11-23T03:39:12.389Z,0.00
2018-11-23T03:40:12.394Z,0.00
2018-11-23T03:41:12.350Z,0.00
2018-11-23T03:42:12.341Z,0.00
2018-11-23T03:43:12.340Z,0.00
2018-11-23T03:44:12.342Z,0.00
2018-11-23T03:45:12.310Z,0.00
2018-11-23T03:46:12.305Z,0.00
2018-11-23T03:47:12.289Z,0.00
2018-11-23T03:48:12.278Z,0.00
2018-11-23T03:49:12.299Z,0.00
2018-11-23T03:50:12.253Z,0.00
2018-11-23T03:51:12.244Z,0.00
2018-11-23T03:52:12.247Z,0.00
2018-11-23T03:53:12.223Z,0.00
2018-11-23T03:54:12.239Z,0.00
2018-11-23T03:55:12.202Z,0.00
2018-11-23T03:56:12.197Z,0.00
2018-11-23T03:57:12.185Z,0.00
2018-11-23T03:58:12.175Z,0.00
2018-11-23T03:59:12.186Z,0.00
2018-11-23T04:00:17.184Z,0.00
2018-11-23T04:01:13.143Z,0.00
2018-11-23T04:02:12.126Z,0.00
2018-11-23T04:03:12.119Z,0.00
2018-11-23T04:04:12.138Z,0.00
2018-11-23T04:05:12.098Z,0.00
2018-11-23T04:06:12.100Z,0.00
2018-11-23T04:07:12.078Z,0.00
2018-11-23T04:08:12.066Z,0.00
2018-11-23T04:09:12.086Z,0.00
2018-11-23T04:10:12.047Z,0.00
2018-11-23T04:11:12.037Z,0.00
2018-11-23T04:12:12.024Z,0.00
2018-11-23T04:13:12.011Z,0.00
2018-11-23T04:14:12.028Z,0.00
2018-11-23T04:15:11.990Z,0.00
2018-11-23T04:16:11.987Z,0.00
2018-11-23T04:17:11.968Z,0.00
2018-11-23T04:18:11.955Z,0.00
2018-11-23T04:19:11.972Z,0.00
2018-11-23T04:20:11.942Z,0.00
2018-11-23T04:21:11.927Z,0.00
2018-11-23T04:22:11.925Z,0.00
2018-11-23T04:23:11.907Z,0.00
2018-11-23T04:24:11.910Z,0.00
2018-11-23T04:25:11.879Z,0.00
2018-11-23T04:26:11.878Z,0.00
2018-11-23T04:27:11.860Z,0.00
2018-11-23T04:28:11.852Z,0.00
2018-11-23T04:29:11.871Z,0.00
2018-11-23T04:30:11.830Z,0.00
2018-11-23T04:31:11.818Z,0.00
2018-11-23T04:32:11.807Z,0.00
2018-11-23T04:33:11.794Z,0.00
2018-11-23T04:34:11.801Z,0.00
2018-11-23T04:35:11.787Z,0.00
2018-11-23T04:36:11.764Z,0.00
2018-11-23T04:37:11.764Z,0.00
2018-11-23T04:38:11.750Z,0.00
2018-11-23T04:39:11.758Z,0.00
2018-11-23T04:40:11.741Z,0.00
2018-11-23T04:41:11.716Z,0.00
2018-11-23T04:42:11.700Z,0.00
2018-11-23T04:43:11.698Z,0.00
2018-11-23T04:44:11.683Z,0.00
2018-11-23T04:45:11.685Z,0.00
2018-11-23T04:46:11.668Z,0.00
2018-11-23T04:47:11.653Z,0.00
2018-11-23T04:48:11.639Z,0.00
2018-11-23T04:49:11.639Z,0.00
2018-11-23T04:50:11.635Z,0.00
2018-11-23T04:51:11.605Z,0.00
2018-11-23T04:52:11.594Z,0.00
2018-11-23T04:53:11.589Z,0.00
2018-11-23T04:54:11.574Z,0.00
2018-11-23T04:55:11.578Z,0.00
2018-11-23T04:56:11.553Z,0.00
2018-11-23T04:57:11.548Z,0.00
2018-11-23T04:58:11.529Z,0.00
2018-11-23T04:59:11.521Z,0.00
2018-11-23T05:00:11.526Z,0.00
2018-11-23T05:01:11.496Z,0.00
2018-11-23T05:02:11.485Z,0.00
2018-11-23T05:03:11.475Z,0.00
2018-11-23T05:04:11.469Z,0.00
2018-11-23T05:05:11.485Z,0.00
2018-11-23T05:06:11.445Z,0.00
2018-11-23T05:07:11.433Z,0.00
2018-11-23T05:08:11.425Z,0.00
2018-11-23T05:09:11.413Z,0.00
2018-11-23T05:10:11.425Z,0.00
2018-11-23T05:11:11.394Z,0.00
2018-11-23T05:12:11.380Z,0.00
2018-11-23T05:13:11.370Z,0.00
2018-11-23T05:14:11.375Z,0.00
2018-11-23T05:15:11.369Z,0.00
2018-11-23T05:16:11.342Z,0.00
2018-11-23T05:17:11.341Z,0.00
2018-11-23T05:18:11.315Z,0.00
2018-11-23T05:19:11.309Z,0.00
2018-11-23T05:20:11.312Z,0.00
2018-11-23T05:21:11.281Z,0.00
2018-11-23T05:22:11.278Z,0.00
2018-11-23T05:23:11.269Z,0.00
2018-11-23T05:24:11.273Z,0.00
2018-11-23T05:25:11.256Z,0.00
2018-11-23T05:26:11.230Z,0.00
2018-11-23T05:27:11.230Z,0.00
2018-11-23T05:28:11.215Z,0.00
2018-11-23T05:29:11.204Z,0.00
2018-11-23T05:30:11.217Z,0.00
2018-11-23T05:31:11.176Z,0.00
2018-11-23T05:32:11.169Z,0.00
2018-11-23T05:33:11.163Z,0.00
2018-11-23T05:34:11.157Z,0.00
2018-11-23T05:35:11.151Z,0.00
2018-11-23T05:36:11.122Z,0.00
2018-11-23T05:37:11.119Z,0.00
2018-11-23T05:38:11.107Z,0.00
2018-11-23T05:39:11.095Z,0.00
2018-11-23T05:40:11.101Z,0.00
2018-11-23T05:41:11.085Z,0.00
2018-11-23T05:42:11.058Z,0.00
2018-11-23T05:43:11.053Z,0.00
2018-11-23T05:44:11.039Z,0.00
2018-11-23T05:45:11.093Z,0.00
2018-11-23T05:46:11.018Z,0.00
2018-11-23T05:47:11.014Z,0.00
2018-11-23T05:48:11.004Z,0.00
2018-11-23T05:49:11.007Z,0.00
2018-11-23T05:50:10.987Z,0.00
2018-11-23T05:51:10.968Z,0.00
2018-11-23T05:52:10.955Z,0.00
2018-11-23T05:53:10.940Z,0.00
2018-11-23T05:54:10.932Z,0.00
2018-11-23T05:55:10.946Z,0.00
2018-11-23T05:56:10.911Z,0.00
2018-11-23T05:57:10.923Z,0.00
2018-11-23T05:58:10.891Z,0.00
2018-11-23T05:59:10.878Z,0.00
2018-11-23T06:00:10.905Z,0.00
2018-11-23T06:01:10.856Z,0.00
2018-11-23T06:02:10.847Z,0.00
2018-11-23T06:03:10.836Z,0.00
2018-11-23T06:04:10.835Z,0.00
2018-11-23T06:05:10.835Z,0.00
2018-11-23T06:06:10.802Z,0.00
2018-11-23T06:07:10.799Z,0.00
2018-11-23T06:08:10.781Z,0.00
2018-11-23T06:09:10.776Z,0.00
2018-11-23T06:10:10.791Z,0.00
2018-11-23T06:11:10.751Z,0.00
2018-11-23T06:12:10.737Z,0.00
2018-11-23T06:13:10.733Z,0.00
2018-11-23T06:14:10.720Z,0.00
2018-11-23T06:15:10.708Z,0.00
2018-11-23T06:16:10.714Z,0.00
2018-11-23T06:17:10.718Z,0.00
2018-11-23T06:18:10.674Z,0.00
2018-11-23T06:19:10.684Z,0.00
2018-11-23T06:20:10.651Z,0.00
2018-11-23T06:21:10.656Z,0.00
2018-11-23T06:22:10.660Z,0.00
2018-11-23T06:23:10.617Z,0.00
2018-11-23T06:24:10.608Z,0.00
2018-11-23T06:25:10.597Z,4.00
2018-11-23T06:26:10.602Z,4.00
2018-11-23T06:27:10.598Z,0.00
2018-11-23T06:28:10.567Z,4.00
2018-11-23T06:29:10.553Z,4.00
2018-11-23T06:30:10.545Z,0.00
2018-11-23T06:31:10.548Z,4.00
2018-11-23T06:32:10.522Z,4.00
2018-11-23T06:33:10.521Z,4.00
2018-11-23T06:34:10.512Z,8.00
2018-11-23T06:35:10.491Z,8.00
2018-11-23T06:36:10.494Z,8.00
2018-11-23T06:37:10.470Z,8.00
2018-11-23T06:38:10.457Z,12.00
2018-11-23T06:39:10.456Z,12.00
2018-11-23T06:40:10.448Z,12.00
2018-11-23T06:41:10.767Z,16.00
2018-11-23T06:42:10.415Z,16.00
2018-11-23T06:43:10.404Z,20.00
2018-11-23T06:44:10.398Z,24.00
2018-11-23T06:45:10.384Z,28.00
2018-11-23T06:46:10.398Z,28.00
2018-11-23T06:47:10.387Z,36.00
2018-11-23T06:48:10.355Z,36.00
2018-11-23T06:49:10.341Z,44.00
2018-11-23T06:50:10.330Z,48.00
2018-11-23T06:51:10.335Z,52.00
2018-11-23T06:52:10.324Z,60.00
2018-11-23T06:53:10.301Z,68.00
2018-11-23T06:54:14.406Z,72.00
2018-11-23T06:55:10.280Z,80.00
2018-11-23T06:56:10.281Z,92.00
2018-11-23T06:57:10.256Z,100.00
2018-11-23T06:58:10.266Z,108.00
2018-11-23T06:59:10.233Z,116.00
2018-11-23T07:00:10.222Z,124.00
2018-11-23T07:01:10.230Z,136.00
2018-11-23T07:02:10.201Z,144.00
2018-11-23T07:03:10.192Z,156.00
2018-11-23T07:04:10.194Z,164.00
2018-11-23T07:05:10.169Z,180.00
2018-11-23T07:06:10.174Z,188.00
2018-11-23T07:07:10.147Z,200.00
2018-11-23T07:08:10.138Z,216.00
2018-11-23T07:09:10.126Z,228.00
2018-11-23T07:10:10.125Z,244.00
2018-11-23T07:11:10.136Z,256.00
2018-11-23T07:12:10.093Z,272.00
2018-11-23T07:13:10.083Z,288.00
2018-11-23T07:14:10.072Z,304.00
2018-11-23T07:15:10.063Z,324.00
2018-11-23T07:16:10.070Z,340.00
2018-11-23T07:17:10.090Z,356.00
2018-11-23T07:18:10.032Z,376.00
2018-11-23T07:19:10.019Z,396.00
2018-11-23T07:20:10.009Z,412.00
2018-11-23T07:21:09.998Z,432.00
2018-11-23T07:22:10.020Z,452.00
2018-11-23T07:23:09.977Z,472.00
2018-11-23T07:24:09.965Z,492.00
2018-11-23T07:25:09.954Z,512.00
2018-11-23T07:26:09.945Z,536.00
2018-11-23T07:27:09.952Z,556.00
2018-11-23T07:28:15.407Z,580.00
2018-11-23T07:29:10.912Z,600.00
2018-11-23T07:30:09.902Z,624.00
2018-11-23T07:31:09.891Z,648.00
2018-11-23T07:32:09.900Z,672.00
2018-11-23T07:33:09.871Z,696.00
2018-11-23T07:34:09.889Z,724.00
2018-11-23T07:35:09.854Z,748.00
2018-11-23T07:36:09.841Z,776.00
2018-11-23T07:37:09.844Z,800.00
2018-11-23T07:38:09.817Z,820.00
2018-11-23T07:39:09.812Z,844.00
2018-11-23T07:40:09.832Z,868.00
2018-11-23T07:41:09.793Z,888.00
2018-11-23T07:42:09.789Z,908.00
2018-11-23T07:43:09.763Z,928.00
2018-11-23T07:44:09.755Z,948.00
2018-11-23T07:45:09.744Z,972.00
2018-11-23T07:46:09.756Z,1000.00
2018-11-23T07:47:09.749Z,1028.00
2018-11-23T07:48:09.711Z,1052.00
2018-11-23T07:49:09.704Z,1080.00
2018-11-23T07:50:09.688Z,1104.00
2018-11-23T07:51:09.679Z,1136.00
2018-11-23T07:52:09.712Z,1160.00
2018-11-23T07:53:09.660Z,1196.00
2018-11-23T07:54:09.645Z,1232.00
2018-11-23T07:55:09.638Z,1268.00
2018-11-23T07:56:09.657Z,1316.00
2018-11-23T07:57:09.634Z,1364.00
2018-11-23T07:58:09.682Z,1412.00
2018-11-23T07:59:09.595Z,1464.00
2018-11-23T08:00:09.582Z,1524.00
2018-11-23T08:01:09.570Z,1588.00
2018-11-23T08:02:09.576Z,1672.00
2018-11-23T08:03:09.552Z,1736.00
2018-11-23T08:04:09.606Z,1784.00
2018-11-23T08:05:09.534Z,1824.00
2018-11-23T08:06:09.520Z,1868.00
2018-11-23T08:07:09.521Z,1904.00
2018-11-23T08:08:09.502Z,1956.00
2018-11-23T08:09:09.490Z,2008.00
2018-11-23T08:10:09.502Z,2048.00
2018-11-23T08:11:09.472Z,2072.00
2018-11-23T08:12:09.475Z,2072.00
2018-11-23T08:13:09.446Z,2080.00
2018-11-23T08:14:09.432Z,2112.00
2018-11-23T08:15:09.441Z,2136.00
2018-11-23T08:16:09.434Z,2168.00
2018-11-23T08:17:09.431Z,2216.00
2018-11-23T08:18:09.389Z,2288.00
2018-11-23T08:19:09.381Z,2396.00
2018-11-23T08:20:09.370Z,2492.00
2018-11-23T08:21:09.358Z,2584.00
2018-11-23T08:22:09.371Z,2532.00
2018-11-23T08:23:09.367Z,2680.00
2018-11-23T08:24:09.325Z,2760.00
2018-11-23T08:25:09.316Z,2844.00
2018-11-23T08:26:09.307Z,2940.00
2018-11-23T08:27:09.298Z,2964.00
2018-11-23T08:28:09.308Z,2640.00
2018-11-23T08:29:09.291Z,1856.00
2018-11-23T08:30:09.262Z,1692.00
2018-11-23T08:31:09.251Z,1764.00
2018-11-23T08:32:09.240Z,2236.00
2018-11-23T08:33:09.247Z,2768.00
2018-11-23T08:34:09.229Z,3344.00
2018-11-23T08:35:09.256Z,3272.00
2018-11-23T08:36:09.200Z,2988.00
2018-11-23T08:37:09.191Z,2480.00
2018-11-23T08:38:09.192Z,2144.00
2018-11-23T08:39:09.175Z,2044.00
2018-11-23T08:40:09.156Z,2052.00
2018-11-23T08:41:09.193Z,2048.00
2018-11-23T08:42:09.137Z,2228.00
2018-11-23T08:43:09.140Z,2696.00
2018-11-23T08:44:09.115Z,3120.00
2018-11-23T08:45:09.113Z,3600.00
2018-11-23T08:46:09.097Z,3652.00
2018-11-23T08:47:09.083Z,3656.00
2018-11-23T08:48:09.106Z,3668.00
2018-11-23T08:49:09.063Z,3692.00
2018-11-23T08:50:09.050Z,3728.00
2018-11-23T08:51:09.040Z,3832.00
2018-11-23T08:52:09.047Z,3960.00
2018-11-23T08:53:09.034Z,4088.00
2018-11-23T08:54:09.017Z,4240.00
2018-11-23T08:55:09.018Z,4420.00
2018-11-23T08:56:08.988Z,3804.00
2018-11-23T08:57:08.981Z,3308.00
2018-11-23T08:58:08.981Z,3508.00
2018-11-23T08:59:08.955Z,4688.00
2018-11-23T09:00:08.946Z,5024.00
2018-11-23T09:01:08.952Z,5104.00
2018-11-23T09:02:08.926Z,4412.00
2018-11-23T09:03:08.932Z,3748.00
2018-11-23T09:04:08.915Z,3436.00
2018-11-23T09:05:08.891Z,2748.00
2018-11-23T09:06:08.935Z,3180.00
2018-11-23T09:07:08.890Z,5148.00
2018-11-23T09:08:08.949Z,5256.00
2018-11-23T09:09:08.870Z,5204.00
2018-11-23T09:10:08.850Z,5212.00
2018-11-23T09:11:08.828Z,5204.00
2018-11-23T09:12:08.820Z,5228.00
2018-11-23T09:13:08.868Z,5268.00
2018-11-23T09:14:08.798Z,5312.00
2018-11-23T09:15:08.792Z,5356.00
2018-11-23T09:16:08.776Z,5468.00
2018-11-23T09:17:08.767Z,5548.00
2018-11-23T09:18:08.773Z,5668.00
2018-11-23T09:19:08.787Z,5820.00
2018-11-23T09:20:08.737Z,5924.00
2018-11-23T09:21:08.728Z,6040.00
2018-11-23T09:22:08.720Z,6120.00
2018-11-23T09:23:08.728Z,6232.00
2018-11-23T09:24:08.699Z,6316.00
2018-11-23T09:25:08.720Z,6416.00
2018-11-23T09:26:08.674Z,6528.00
2018-11-23T09:27:08.664Z,6652.00
2018-11-23T09:28:08.673Z,6764.00
2018-11-23T09:29:08.646Z,6848.00
2018-11-23T09:30:08.635Z,6904.00
2018-11-23T09:31:08.644Z,6876.00
2018-11-23T09:32:08.612Z,6704.00
2018-11-23T09:33:08.621Z,6736.00
2018-11-23T09:34:08.598Z,6780.00
2018-11-23T09:35:08.584Z,6768.00
2018-11-23T09:36:08.571Z,6752.00
2018-11-23T09:37:08.578Z,6864.00
2018-11-23T09:38:08.570Z,6768.00
2018-11-23T09:39:08.543Z,6688.00
2018-11-23T09:40:08.536Z,6732.00
2018-11-23T09:41:08.520Z,6788.00
2018-11-23T09:42:08.508Z,6848.00
2018-11-23T09:43:08.535Z,6872.00
2018-11-23T09:44:08.487Z,6908.00
2018-11-23T09:45:08.476Z,6968.00
2018-11-23T09:46:08.469Z,7044.00
2018-11-23T09:47:10.231Z,7160.00
2018-11-23T09:48:08.461Z,7232.00
2018-11-23T09:49:08.465Z,7224.00
2018-11-23T09:50:08.428Z,7288.00
2018-11-23T09:51:08.415Z,7292.00
2018-11-23T09:52:08.410Z,7316.00
2018-11-23T09:53:08.409Z,7344.00
2018-11-23T09:54:08.513Z,7328.00
2018-11-23T09:55:08.369Z,7420.00
2018-11-23T09:56:08.382Z,7408.00
2018-11-23T09:57:08.349Z,7460.00
2018-11-23T09:58:08.367Z,7508.00
2018-11-23T09:59:08.333Z,7572.00
2018-11-23T10:00:08.316Z,7636.00
2018-11-23T10:02:08.305Z,7744.00
2018-11-23T10:03:08.286Z,7780.00
2018-11-23T10:04:08.289Z,7796.00
2018-11-23T10:05:08.369Z,7836.00
2018-11-23T10:06:08.254Z,7896.00
2018-11-23T10:07:08.240Z,7908.00
2018-11-23T10:08:08.269Z,7940.00
2018-11-23T10:09:08.258Z,8016.00
2018-11-23T10:10:08.231Z,8076.00
2018-11-23T10:11:08.204Z,8140.00
2018-11-23T10:12:08.188Z,8176.00
2018-11-23T10:13:08.177Z,8248.00
2018-11-23T10:14:08.218Z,8232.00
2018-11-23T10:15:08.155Z,8252.00
2018-11-23T10:16:08.159Z,8272.00
2018-11-23T10:17:08.144Z,8296.00
2018-11-23T10:18:08.123Z,8416.00
2018-11-23T10:19:08.130Z,8856.00
2018-11-23T10:20:08.142Z,9420.00
2018-11-23T10:21:08.091Z,9956.00
2018-11-23T10:22:08.079Z,10104.00
2018-11-23T10:23:08.069Z,10128.00
2018-11-23T10:24:08.073Z,10184.00
2018-11-23T10:25:08.046Z,10196.00
2018-11-23T10:26:08.058Z,10176.00
2018-11-23T10:27:08.030Z,10228.00
2018-11-23T10:28:08.013Z,9996.00
2018-11-23T10:29:08.021Z,9736.00
2018-11-23T10:30:07.990Z,9372.00
2018-11-23T10:31:07.978Z,8892.00
2018-11-23T10:32:07.975Z,8920.00
2018-11-23T10:33:07.958Z,8944.00
2018-11-23T10:34:07.965Z,8996.00
2018-11-23T10:35:07.935Z,9064.00
2018-11-23T10:36:07.925Z,9140.00
2018-11-23T10:37:07.915Z,9244.00
2018-11-23T10:38:07.912Z,9404.00
2018-11-23T10:39:07.903Z,9556.00
2018-11-23T10:40:07.923Z,7360.00
2018-11-23T10:41:07.872Z,8976.00
2018-11-23T10:42:07.855Z,9464.00
2018-11-23T10:43:07.847Z,8856.00
2018-11-23T10:44:07.869Z,10028.00
2018-11-23T10:45:07.827Z,9796.00
2018-11-23T10:46:07.813Z,9604.00
2018-11-23T10:47:07.799Z,10412.00
2018-11-23T10:48:07.789Z,10488.00
2018-11-23T10:49:07.792Z,10632.00
2018-11-23T10:50:07.783Z,10784.00
2018-11-23T10:51:07.754Z,11192.00
2018-11-23T10:52:07.744Z,11540.00
2018-11-23T10:53:07.733Z,12448.00
2018-11-23T10:54:07.737Z,13392.00
2018-11-23T10:55:07.711Z,13592.00
2018-11-23T10:56:07.704Z,13176.00
2018-11-23T10:57:07.690Z,12676.00
2018-11-23T10:58:07.681Z,12444.00
2018-11-23T10:59:07.685Z,12376.00
2018-11-23T11:00:07.658Z,11688.00
2018-11-23T11:01:07.644Z,10988.00
2018-11-23T11:02:07.650Z,10640.00
2018-11-23T11:03:07.624Z,10420.00
2018-11-23T11:04:07.629Z,10076.00
2018-11-23T11:05:07.605Z,9732.00
2018-11-23T11:06:07.592Z,9404.00
2018-11-23T11:07:07.585Z,9144.00
2018-11-23T11:08:07.590Z,8840.00
2018-11-23T11:09:07.577Z,8648.00
2018-11-23T11:10:07.550Z,8480.00
2018-11-23T11:11:08.130Z,8396.00
2018-11-23T11:12:07.526Z,8308.00
2018-11-23T11:13:07.521Z,8120.00
2018-11-23T11:14:07.540Z,7688.00
2018-11-23T11:15:07.495Z,7104.00
2018-11-23T11:16:07.487Z,6420.00
2018-11-23T11:17:07.471Z,6044.00
2018-11-23T11:18:07.461Z,4952.00
2018-11-23T11:19:07.485Z,4616.00
2018-11-23T11:20:07.458Z,4648.00
2018-11-23T11:21:07.431Z,4640.00
2018-11-23T11:22:07.417Z,4680.00
2018-11-23T11:23:07.406Z,5676.00
2018-11-23T11:24:07.396Z,6148.00
2018-11-23T11:25:07.406Z,6284.00
2018-11-23T11:26:07.402Z,6492.00
2018-11-23T11:27:07.361Z,6588.00
2018-11-23T11:28:07.359Z,6620.00
2018-11-23T11:29:07.342Z,6592.00
2018-11-23T11:30:07.349Z,6668.00
2018-11-23T11:31:07.323Z,6336.00
2018-11-23T11:32:07.311Z,5052.00
2018-11-23T11:33:07.308Z,4352.00
2018-11-23T11:34:07.283Z,4376.00
2018-11-23T11:35:07.289Z,4476.00
2018-11-23T11:36:07.261Z,4636.00
2018-11-23T11:37:07.250Z,4936.00
2018-11-23T11:38:07.238Z,5172.00
2018-11-23T11:39:07.246Z,5584.00
2018-11-23T11:40:07.231Z,6220.00
2018-11-23T11:41:07.203Z,6804.00
2018-11-23T11:42:07.193Z,7512.00
2018-11-23T11:43:07.182Z,8160.00
2018-11-23T11:44:07.172Z,8992.00
2018-11-23T11:45:07.950Z,9444.00
2018-11-23T11:46:07.148Z,9680.00
2018-11-23T11:47:07.137Z,9572.00
2018-11-23T11:48:07.161Z,9364.00
2018-11-23T11:49:07.117Z,9140.00
2018-11-23T11:50:07.108Z,8936.00
2018-11-23T11:51:07.152Z,8780.00
2018-11-23T11:52:07.083Z,8712.00
2018-11-23T11:53:07.071Z,8512.00
2018-11-23T11:54:07.063Z,8048.00
2018-11-23T11:55:07.054Z,7548.00
2018-11-23T11:56:07.063Z,6784.00
2018-11-23T11:57:07.073Z,6112.00
2018-11-23T11:58:07.034Z,5588.00
2018-11-23T11:59:07.004Z,5196.00
2018-11-23T12:00:06.997Z,4620.00
2018-11-23T12:01:07.000Z,3972.00
2018-11-23T12:02:10.294Z,3556.00
2018-11-23T12:03:06.975Z,3204.00
2018-11-23T12:04:06.965Z,2908.00
2018-11-23T12:05:06.937Z,2680.00
2018-11-23T12:06:06.968Z,2544.00
2018-11-23T12:07:06.916Z,2476.00
2018-11-23T12:08:06.904Z,2348.00
2018-11-23T12:09:06.947Z,2288.00
2018-11-23T12:10:06.907Z,2276.00
2018-11-23T12:11:06.890Z,2264.00
2018-11-23T12:12:06.861Z,2248.00
2018-11-23T12:13:06.849Z,2248.00
2018-11-23T12:14:06.857Z,2248.00
2018-11-23T12:15:06.881Z,2232.00
2018-11-23T12:16:06.854Z,2240.00
2018-11-23T12:17:06.813Z,2252.00
2018-11-23T12:18:06.795Z,2232.00
2018-11-23T12:19:08.114Z,2212.00
2018-11-23T12:20:06.791Z,2204.00
2018-11-23T12:21:06.817Z,2200.00
2018-11-23T12:22:06.760Z,2188.00
2018-11-23T12:23:06.779Z,2180.00
2018-11-23T12:24:06.731Z,2180.00
2018-11-23T12:25:06.719Z,2160.00
2018-11-23T12:26:06.728Z,2152.00
2018-11-23T12:27:06.715Z,2132.00
2018-11-23T12:28:06.690Z,2124.00
2018-11-23T12:29:06.684Z,2092.00
2018-11-23T12:30:06.667Z,2100.00
2018-11-23T12:31:06.670Z,2096.00
2018-11-23T12:32:06.649Z,2080.00
2018-11-23T12:33:06.632Z,2080.00
2018-11-23T12:34:06.638Z,2072.00
2018-11-23T12:35:06.640Z,2052.00
2018-11-23T12:36:06.617Z,2044.00
2018-11-23T12:37:06.589Z,2028.00
2018-11-23T12:38:06.578Z,2016.00
2018-11-23T12:39:06.575Z,1992.00
2018-11-23T12:40:06.601Z,1988.00
2018-11-23T12:41:06.591Z,1960.00
2018-11-23T12:42:06.537Z,1956.00
2018-11-23T12:43:06.527Z,1952.00
2018-11-23T12:44:06.513Z,1924.00